Time;durP1;ratioP1;P1;durP2;ratioP2;P2;SDS_P1;SDS_P2;PMS_P1;PMS_P2;Temp;Humidity;BMP_temperature;BMP_pressure;BME280_temperature;BME280_humidity;BME280_pressure;Samples;Min_cycle;Max_cycle;Signal;HPM_P1;HPM_P2
2022/06/24 00:00:09;;;;;;;6.75;3.90;;;24.50;56.00;;;;;;5067194;28;20064;-75
2022/06/24 00:02:37;;;;;;;5.43;4.22;;;24.40;56.00;;;;;;5061732;28;20048;-77
2022/06/24 00:05:07;;;;;;;5.30;4.13;;;24.30;56.30;;;;;;5062641;28;20055;-79
2022/06/24 00:07:47;;;;;;;5.18;4.28;;;24.30;56.40;;;;;;5070392;28;20123;-78
2022/06/24 00:10:15;;;;;;;5.57;3.78;;;24.40;56.10;;;;;;5068082;28;20029;-78
2022/06/24 00:12:40;;;;;;;6.47;3.92;;;24.40;55.90;;;;;;5060455;28;20032;-79
2022/06/24 00:15:07;;;;;;;8.20;3.85;;;24.30;56.00;;;;;;5061777;28;20082;-78
2022/06/24 00:17:34;;;;;;;5.53;3.90;;;24.20;56.20;;;;;;5053045;28;20035;-79
2022/06/24 00:20:05;;;;;;;7.57;3.95;;;24.10;56.30;;;;;;5053689;28;20128;-79
2022/06/24 00:22:40;;;;;;;8.77;4.70;;;24.20;56.10;;;;;;5064417;28;20038;-78
2022/06/24 00:25:17;;;;;;;5.00;4.00;;;24.30;55.70;;;;;;5068855;28;20029;-77
2022/06/24 00:27:57;;;;;;;6.85;4.13;;;24.10;56.10;;;;;;5067213;28;20517;-77
2022/06/24 00:30:23;;;;;;;30.60;28.00;;;23.90;56.40;;;;;;5068734;28;20052;-76
2022/06/24 00:32:49;;;;;;;5.00;3.75;;;23.70;56.60;;;;;;5067172;28;20386;-77
2022/06/24 00:35:16;;;;;;;6.95;4.10;;;23.50;56.60;;;;;;5071733;28;20029;-78
2022/06/24 00:37:44;;;;;;;5.18;3.85;;;23.50;57.30;;;;;;5073913;28;20104;-79
2022/06/24 00:40:10;;;;;;;5.53;4.05;;;23.60;56.60;;;;;;5070432;28;20524;-79
2022/06/24 00:42:41;;;;;;;5.63;3.90;;;23.80;56.10;;;;;;5074170;28;20033;-79
2022/06/24 00:45:38;;;;;;;5.38;3.90;;;24.00;55.50;;;;;;5065869;28;20080;-79
2022/06/24 00:48:14;;;;;;;4.97;3.72;;;23.90;55.00;;;;;;5071569;28;20025;-78
2022/06/24 00:50:47;;;;;;;5.97;3.75;;;23.90;55.20;;;;;;5063111;28;20017;-79
2022/06/24 00:53:14;;;;;;;6.20;4.00;;;24.00;55.40;;;;;;5061081;28;20384;-78
2022/06/24 00:55:43;;;;;;;7.72;4.40;;;24.10;55.30;;;;;;5055402;28;20483;-79
2022/06/24 00:58:17;;;;;;;9.27;4.10;;;24.10;55.20;;;;;;5071283;28;20398;-79
2022/06/24 01:00:48;;;;;;;7.35;4.20;;;24.10;54.80;;;;;;5049846;28;20021;-79
2022/06/24 01:03:14;;;;;;;5.38;4.13;;;24.10;54.70;;;;;;5059153;28;20040;-79
2022/06/24 01:05:42;;;;;;;6.82;4.55;;;23.90;55.50;;;;;;5068204;28;20021;-79
2022/06/24 01:08:13;;;;;;;7.43;4.35;;;23.90;55.50;;;;;;5073323;28;20033;-78
2022/06/24 01:10:39;;;;;;;5.00;4.22;;;23.80;55.30;;;;;;5071147;28;20025;-79
2022/06/24 01:13:09;;;;;;;5.05;4.15;;;23.60;55.70;;;;;;5073630;28;20026;-77
2022/06/24 01:15:36;;;;;;;5.20;4.18;;;23.40;55.80;;;;;;5062458;28;20028;-78
2022/06/24 01:18:01;;;;;;;5.70;4.20;;;23.30;56.20;;;;;;5061804;28;20025;-78
2022/06/24 01:20:27;;;;;;;9.10;4.57;;;23.20;56.50;;;;;;5070340;28;20035;-79
2022/06/24 01:22:53;;;;;;;7.40;4.60;;;23.10;57.00;;;;;;5063764;28;20482;-78
2022/06/24 01:25:18;;;;;;;5.95;4.40;;;23.10;56.70;;;;;;5069924;28;20027;-78
2022/06/24 01:27:44;;;;;;;6.50;4.80;;;23.20;56.70;;;;;;5061628;28;20379;-78
2022/06/24 01:30:10;;;;;;;6.57;4.80;;;23.30;56.90;;;;;;5070440;28;20024;-79
2022/06/24 01:32:36;;;;;;;6.43;4.30;;;23.50;56.60;;;;;;5068054;28;20040;-78
2022/06/24 01:35:03;;;;;;;8.07;4.40;;;23.80;56.90;;;;;;5072954;28;20025;-79
2022/06/24 01:37:29;;;;;;;5.75;4.68;;;23.70;57.00;;;;;;5058055;28;20020;-78
2022/06/24 01:39:55;;;;;;;7.15;4.20;;;23.70;56.70;;;;;;5065596;28;20043;-78
2022/06/24 01:42:20;;;;;;;11.13;4.50;;;23.60;56.50;;;;;;5067982;28;20132;-78
2022/06/24 01:44:46;;;;;;;6.50;4.43;;;23.50;56.60;;;;;;5073062;28;20382;-78
2022/06/24 01:47:12;;;;;;;7.32;4.80;;;23.30;56.90;;;;;;5070176;28;20099;-78
2022/06/24 01:49:38;;;;;;;6.20;4.65;;;23.30;57.00;;;;;;5063918;28;20096;-79
2022/06/24 01:52:04;;;;;;;5.35;4.10;;;23.30;57.40;;;;;;5056840;28;20376;-78
2022/06/24 01:54:30;;;;;;;7.25;4.82;;;23.20;57.30;;;;;;5067158;28;20040;-79
2022/06/24 01:56:56;;;;;;;5.72;4.80;;;23.30;57.60;;;;;;5069841;28;20028;-79
2022/06/24 01:59:23;;;;;;;6.90;4.47;;;23.40;57.40;;;;;;5064754;28;20091;-80
2022/06/24 02:01:49;;;;;;;6.40;4.78;;;23.50;57.10;;;;;;5064358;28;20049;-79
2022/06/24 02:04:15;;;;;;;6.03;5.10;;;23.60;56.90;;;;;;5070486;28;20102;-78
2022/06/24 02:06:41;;;;;;;6.20;4.70;;;23.40;56.90;;;;;;5059907;28;20027;-78
2022/06/24 02:09:07;;;;;;;5.68;4.75;;;23.30;57.30;;;;;;5057476;28;20032;-78
2022/06/24 02:14:19;;;;;;;6.55;4.90;;;23.10;57.50;;;;;;5064927;28;20126;-79
2022/06/24 02:16:46;;;;;;;6.15;4.70;;;23.10;57.70;;;;;;5069050;28;20056;-78
2022/06/24 02:19:12;;;;;;;7.13;4.85;;;23.10;57.50;;;;;;5067385;28;20048;-79
2022/06/24 02:21:38;;;;;;;6.47;4.70;;;23.10;57.60;;;;;;5069860;28;20036;-79
2022/06/24 02:24:05;;;;;;;5.90;4.93;;;23.10;57.90;;;;;;5059932;28;20498;-79
2022/06/24 02:26:31;;;;;;;7.10;4.50;;;23.20;57.30;;;;;;5069371;28;20494;-78
2022/06/24 02:28:57;;;;;;;6.28;4.80;;;23.30;57.10;;;;;;5073224;28;20032;-78
2022/06/24 02:31:23;;;;;;;5.30;4.50;;;23.20;57.60;;;;;;5069972;28;20028;-79
2022/06/24 02:33:48;;;;;;;6.00;4.60;;;23.10;57.70;;;;;;5072975;28;20043;-79
2022/06/24 02:36:15;;;;;;;6.45;4.80;;;23.00;57.40;;;;;;5071871;28;20391;-78
2022/06/24 02:38:41;;;;;;;5.97;4.80;;;23.10;57.30;;;;;;5068184;28;20061;-78
2022/06/24 02:41:07;;;;;;;8.10;5.47;;;22.90;57.20;;;;;;5065369;28;20035;-78
2022/06/24 02:43:35;;;;;;;7.63;4.90;;;22.90;57.60;;;;;;5073014;28;20028;-79
2022/06/24 02:46:02;;;;;;;6.40;4.97;;;22.90;57.50;;;;;;5070190;28;20338;-77
2022/06/24 02:48:29;;;;;;;7.03;5.07;;;22.90;57.50;;;;;;5070176;28;20486;-78
2022/06/24 02:50:57;;;;;;;6.55;5.13;;;22.70;57.60;;;;;;5066838;28;20559;-78
2022/06/24 02:53:24;;;;;;;6.57;4.70;;;22.60;58.10;;;;;;5061639;28;20384;-77
2022/06/24 02:55:52;;;;;;;6.22;4.60;;;22.70;57.90;;;;;;5070352;28;20513;-79
2022/06/24 02:58:18;;;;;;;7.95;4.70;;;22.60;58.00;;;;;;5076058;28;20076;-79
2022/06/24 03:00:44;;;;;;;6.25;4.53;;;22.70;58.10;;;;;;5070687;28;20025;-78
2022/06/24 03:03:12;;;;;;;6.53;4.63;;;22.90;57.50;;;;;;5072693;28;20040;-78
2022/06/24 03:05:38;;;;;;;6.38;4.53;;;22.90;57.40;;;;;;5070872;28;20028;-79
2022/06/24 03:08:04;;;;;;;6.20;4.72;;;22.90;57.30;;;;;;5069001;28;20029;-78
2022/06/24 03:10:30;;;;;;;6.32;4.78;;;22.60;57.50;;;;;;5057513;28;20108;-78
2022/06/24 03:12:56;;;;;;;5.80;4.20;;;22.80;57.30;;;;;;5072793;28;20114;-79
2022/06/24 03:15:22;;;;;;;6.82;4.90;;;22.90;57.30;;;;;;5073090;28;20028;-78
2022/06/24 03:17:48;;;;;;;6.45;4.35;;;23.10;56.80;;;;;;5064161;28;20372;-79
2022/06/24 03:20:14;;;;;;;8.40;4.60;;;23.30;56.40;;;;;;5067958;28;20104;-78
2022/06/24 03:22:40;;;;;;;7.80;4.20;;;23.20;56.60;;;;;;5069961;28;20040;-78
2022/06/24 03:25:07;;;;;;;6.40;4.75;;;23.10;56.80;;;;;;5067961;28;20020;-79
2022/06/24 03:27:33;;;;;;;6.50;4.70;;;23.20;56.70;;;;;;5072935;28;20029;-78
2022/06/24 03:30:00;;;;;;;6.38;4.47;;;23.30;56.30;;;;;;5072081;28;20081;-79
2022/06/24 03:32:51;;;;;;;6.13;4.45;;;23.30;56.20;;;;;;5070204;28;20522;-78
2022/06/24 03:35:17;;;;;;;8.07;4.40;;;23.30;56.10;;;;;;5068532;28;20035;-79
2022/06/24 03:37:44;;;;;;;5.80;4.40;;;23.30;56.40;;;;;;5072162;28;20040;-79
2022/06/24 03:40:10;;;;;;;5.57;4.40;;;23.30;57.10;;;;;;5066873;28;20040;-75
2022/06/24 03:42:36;;;;;;;6.38;4.70;;;23.40;56.60;;;;;;5069040;28;20437;-78
2022/06/24 03:45:01;;;;;;;5.22;4.47;;;23.40;56.90;;;;;;5068988;28;20086;-78
2022/06/24 03:47:27;;;;;;;7.55;4.50;;;23.40;56.90;;;;;;5070359;28;20052;-77
2022/06/24 03:49:53;;;;;;;7.43;4.75;;;23.50;56.80;;;;;;5073031;28;20028;-79
2022/06/24 03:52:18;;;;;;;7.35;5.40;;;23.60;57.10;;;;;;5046895;28;20082;-77
2022/06/24 03:54:45;;;;;;;7.43;4.72;;;23.60;57.20;;;;;;5071873;28;20016;-78
2022/06/24 03:57:11;;;;;;;6.85;4.75;;;23.60;57.40;;;;;;5069163;28;20116;-79
2022/06/24 03:59:37;;;;;;;6.78;4.53;;;23.60;57.50;;;;;;5075059;28;20108;-77
2022/06/24 04:02:03;;;;;;;6.60;4.35;;;23.60;57.40;;;;;;5063874;28;20055;-77
2022/06/24 04:04:29;;;;;;;7.07;3.92;;;23.70;58.20;;;;;;5075078;28;20029;-77
2022/06/24 04:06:54;;;;;;;6.88;4.55;;;23.90;56.60;;;;;;5069352;28;20502;-77
2022/06/24 04:09:20;;;;;;;8.13;4.78;;;24.00;55.80;;;;;;5054822;28;20082;-77
2022/06/24 04:11:46;;;;;;;8.70;4.40;;;24.20;56.00;;;;;;5058781;28;20029;-77
2022/06/24 04:14:12;;;;;;;8.85;3.72;;;24.30;55.80;;;;;;5059322;28;20067;-78
2022/06/24 04:16:37;;;;;;;4.75;3.38;;;24.50;54.10;;;;;;5049642;28;20115;-76
2022/06/24 04:19:03;;;;;;;7.38;4.20;;;24.60;53.60;;;;;;5054297;28;20028;-77
2022/06/24 04:21:31;;;;;;;6.15;3.78;;;24.70;54.00;;;;;;5053658;28;20484;-79
2022/06/24 04:23:57;;;;;;;8.73;3.80;;;24.90;53.40;;;;;;5053031;28;20445;-79
2022/06/24 04:26:23;;;;;;;6.88;3.60;;;24.90;53.50;;;;;;5049165;28;20475;-79
2022/06/24 04:28:50;;;;;;;6.05;3.80;;;25.10;53.20;;;;;;5052178;28;20530;-77
2022/06/24 04:31:16;;;;;;;5.10;3.80;;;25.40;53.00;;;;;;5052807;28;20106;-77
2022/06/24 04:33:42;;;;;;;5.47;3.63;;;25.60;53.00;;;;;;5054184;28;20107;-78
2022/06/24 04:36:12;;;;;;;7.32;4.07;;;25.70;53.30;;;;;;5054594;28;20029;-79
2022/06/24 04:38:38;;;;;;;7.88;4.05;;;25.80;53.50;;;;;;5054323;28;20025;-77
2022/06/24 04:41:16;;;;;;;6.25;4.32;;;25.90;53.40;;;;;;5058456;28;20028;-77
2022/06/24 04:43:42;;;;;;;7.10;4.13;;;26.00;53.30;;;;;;5059278;28;20021;-78
2022/06/24 04:46:08;;;;;;;5.20;3.97;;;26.10;53.50;;;;;;5070294;28;20486;-78
2022/06/24 04:48:35;;;;;;;6.65;4.00;;;26.20;53.20;;;;;;5061478;28;20060;-77
2022/06/24 04:51:02;;;;;;;5.28;3.80;;;26.30;52.50;;;;;;5053613;28;20092;-77
2022/06/24 04:53:29;;;;;;;6.90;3.70;;;26.40;52.80;;;;;;5053574;28;20483;-75
2022/06/24 04:55:54;;;;;;;8.40;3.63;;;26.30;52.30;;;;;;5060705;28;20060;-79
2022/06/24 04:58:20;;;;;;;7.30;3.80;;;26.30;52.00;;;;;;5052385;28;20052;-76
2022/06/24 05:00:46;;;;;;;6.03;3.55;;;26.40;52.50;;;;;;5050971;28;20352;-76
2022/06/24 05:03:12;;;;;;;6.53;4.03;;;26.50;52.70;;;;;;5058107;28;20048;-79
2022/06/24 05:05:37;;;;;;;5.32;3.88;;;26.80;52.70;;;;;;5054495;28;20032;-77
2022/06/24 05:08:04;;;;;;;5.55;3.67;;;27.00;53.00;;;;;;5053450;28;20029;-77
2022/06/24 05:10:30;;;;;;;5.95;3.55;;;27.00;52.90;;;;;;5050720;28;20053;-77
2022/06/24 05:12:56;;;;;;;7.63;3.65;;;27.00;52.20;;;;;;5050848;28;20060;-76
2022/06/24 05:15:21;;;;;;;7.00;3.30;;;27.30;52.20;;;;;;4700478;28;10000081;-78
2022/06/24 05:17:47;;;;;;;4.95;3.47;;;27.20;52.00;;;;;;5045900;28;20025;-77
2022/06/24 05:20:13;;;;;;;4.93;3.20;;;27.10;52.70;;;;;;5055657;28;20570;-81
2022/06/24 05:22:38;;;;;;;5.80;3.25;;;27.30;52.40;;;;;;5051075;28;20254;-77
2022/06/24 05:25:07;;;;;;;5.57;3.08;;;27.00;52.80;;;;;;5048301;28;20410;-75
2022/06/24 05:27:33;;;;;;;6.68;3.25;;;27.20;52.40;;;;;;5049279;28;20024;-77
2022/06/24 05:29:58;;;;;;;7.47;3.42;;;27.30;52.10;;;;;;5049157;28;20116;-81
2022/06/24 05:32:24;;;;;;;5.85;3.17;;;27.60;52.40;;;;;;5048216;28;20031;-76
2022/06/24 05:34:50;;;;;;;5.05;3.25;;;27.90;50.70;;;;;;5047604;28;20033;-77
2022/06/24 05:37:16;;;;;;;5.15;3.03;;;28.00;50.40;;;;;;5049430;28;20036;-77
2022/06/24 05:39:42;;;;;;;4.88;3.35;;;28.10;51.20;;;;;;5067674;28;20425;-77
2022/06/24 05:42:08;;;;;;;6.60;3.30;;;28.20;49.80;;;;;;5049691;28;20048;-78
2022/06/24 05:44:33;;;;;;;6.13;3.33;;;28.40;49.30;;;;;;5046203;28;20439;-78
2022/06/24 05:46:59;;;;;;;8.40;3.20;;;28.50;49.90;;;;;;5046006;28;20029;-79
2022/06/24 05:49:25;;;;;;;5.45;3.10;;;28.50;49.00;;;;;;5039103;28;20039;-75
2022/06/24 05:51:50;;;;;;;4.80;3.03;;;28.60;49.00;;;;;;5048443;28;20033;-82
2022/06/24 05:57:01;;;;;;;4.45;2.75;;;28.70;47.40;;;;;;5039068;28;20086;-77
2022/06/24 05:59:27;;;;;;;4.90;3.17;;;28.90;46.50;;;;;;5036575;28;20033;-82
2022/06/24 06:01:52;;;;;;;3.78;2.75;;;29.00;46.20;;;;;;5039776;28;20377;-81
2022/06/24 06:04:18;;;;;;;5.00;3.20;;;28.60;46.20;;;;;;5044440;28;20033;-79
2022/06/24 06:06:44;;;;;;;10.90;2.97;;;28.60;46.70;;;;;;5031644;28;20048;-76
2022/06/24 06:09:10;;;;;;;5.22;2.92;;;28.40;46.40;;;;;;5048150;28;20499;-84
2022/06/24 06:11:36;;;;;;;4.00;2.80;;;28.50;45.50;;;;;;5055601;28;20029;-80
2022/06/24 06:14:02;;;;;;;5.00;2.80;;;28.30;45.80;;;;;;5051463;28;20023;-81
2022/06/24 06:16:28;;;;;;;3.92;2.97;;;28.40;45.40;;;;;;5051416;28;20041;-76
2022/06/24 06:18:54;;;;;;;5.88;3.05;;;28.40;46.30;;;;;;5048085;28;20016;-83
2022/06/24 06:21:20;;;;;;;4.22;2.97;;;28.80;46.10;;;;;;5049526;28;20051;-79
2022/06/24 06:23:46;;;;;;;4.75;2.70;;;29.20;45.30;;;;;;5049705;28;20383;-79
2022/06/24 06:26:12;;;;;;;5.25;3.00;;;29.50;46.20;;;;;;5047401;28;20076;-80
2022/06/24 06:28:38;;;;;;;4.05;2.63;;;30.10;45.20;;;;;;5048608;28;20123;-80
2022/06/24 06:31:04;;;;;;;5.68;2.90;;;30.40;45.40;;;;;;5049643;28;20037;-84
2022/06/24 06:33:34;;;;;;;5.00;3.00;;;30.40;44.60;;;;;;5050921;28;20036;-78
2022/06/24 06:36:04;;;;;;;4.85;2.80;;;29.60;46.40;;;;;;5051825;28;20565;-89
2022/06/24 06:38:30;;;;;;;4.03;2.50;;;29.30;45.00;;;;;;5054207;28;20390;-79
2022/06/24 06:40:56;;;;;;;4.95;2.83;;;29.10;46.20;;;;;;5070702;28;20119;-78
2022/06/24 06:43:22;;;;;;;7.82;2.75;;;29.50;46.80;;;;;;5064098;28;20033;-81
2022/06/24 06:45:47;;;;;;;7.72;3.03;;;29.30;44.90;;;;;;5048302;28;20108;-82
2022/06/24 06:48:13;;;;;;;6.15;2.95;;;28.70;45.80;;;;;;5051615;28;20448;-79
2022/06/24 06:50:39;;;;;;;6.13;2.92;;;28.40;46.50;;;;;;5052051;28;20109;-85
2022/06/24 06:53:04;;;;;;;5.45;3.05;;;29.10;46.20;;;;;;5048632;28;20025;-78
2022/06/24 06:55:30;;;;;;;8.77;3.55;;;29.30;45.50;;;;;;5053298;28;20025;-85
2022/06/24 06:57:56;;;;;;;8.90;3.10;;;29.30;46.70;;;;;;5053252;28;20467;-81
2022/06/24 07:00:22;;;;;;;6.60;3.17;;;29.40;46.10;;;;;;5052656;28;20025;-82
2022/06/24 07:02:47;;;;;;;8.70;3.00;;;29.40;46.00;;;;;;5058362;28;20047;-77
2022/06/24 07:05:13;;;;;;;4.15;3.08;;;29.60;45.20;;;;;;5059529;28;20030;-80
2022/06/24 07:07:39;;;;;;;7.70;3.10;;;29.40;46.20;;;;;;4696842;28;10000333;-81
2022/06/24 07:10:05;;;;;;;8.73;3.00;;;29.20;45.30;;;;;;5049649;28;20082;-83
2022/06/24 07:12:31;;;;;;;6.15;3.03;;;29.20;46.80;;;;;;5043550;28;20071;-80
2022/06/24 07:14:57;;;;;;;5.20;3.05;;;29.10;45.50;;;;;;5050228;28;20096;-77
2022/06/24 07:17:23;;;;;;;6.70;2.95;;;29.20;48.20;;;;;;5053448;28;20499;-85
2022/06/24 07:19:48;;;;;;;6.13;2.85;;;29.30;45.30;;;;;;5058631;28;20027;-80
2022/06/24 07:22:14;;;;;;;4.60;2.53;;;29.10;46.10;;;;;;5073457;28;20078;-84
2022/06/24 07:24:40;;;;;;;3.95;2.60;;;29.30;46.10;;;;;;5074137;28;20082;-82
2022/06/24 07:27:09;;;;;;;3.55;2.50;;;29.70;46.30;;;;;;5064355;28;20454;-78
2022/06/24 07:29:36;;;;;;;4.45;2.78;;;29.80;45.80;;;;;;5034225;28;20017;-80
2022/06/24 07:32:03;;;;;;;6.85;2.90;;;29.50;45.30;;;;;;5051192;28;20430;-78
2022/06/24 07:34:32;;;;;;;5.20;3.00;;;29.20;46.30;;;;;;5070414;28;20024;-79
2022/06/24 07:37:02;;;;;;;5.38;2.83;;;29.30;46.60;;;;;;5055911;28;20087;-79
2022/06/24 07:39:28;;;;;;;11.52;2.90;;;29.60;46.10;;;;;;5052935;28;20585;-82
2022/06/24 07:41:54;;;;;;;8.30;2.92;;;29.80;46.00;;;;;;5050869;28;20052;-79
2022/06/24 07:44:21;;;;;;;5.65;2.70;;;30.00;46.80;;;;;;5055729;28;20025;-91
2022/06/24 07:46:48;;;;;;;4.80;2.50;;;30.20;45.90;;;;;;5058772;28;20025;-78
2022/06/24 07:49:13;;;;;;;5.97;2.80;;;30.60;46.10;;;;;;5052743;28;20095;-88
2022/06/24 07:51:39;;;;;;;8.30;2.70;;;30.90;45.50;;;;;;5052516;28;20698;-79
2022/06/24 07:54:07;;;;;;;5.80;2.67;;;30.90;45.40;;;;;;5051720;28;20272;-77
2022/06/24 07:59:23;;;;;;;4.32;2.53;;;31.80;43.40;;;;;;5058550;28;20446;-76
2022/06/24 08:01:49;;;;;;;4.47;2.55;;;32.10;44.40;;;;;;5071656;28;20483;-79
2022/06/24 08:04:15;;;;;;;5.15;2.45;;;32.50;44.10;;;;;;5072597;28;20032;-79
2022/06/24 08:06:45;;;;;;;3.70;2.53;;;32.20;44.40;;;;;;5072372;28;20107;-86
2022/06/24 08:09:14;;;;;;;5.15;2.70;;;32.30;43.50;;;;;;5073914;28;20021;-81
2022/06/24 08:11:40;;;;;;;5.53;2.65;;;32.30;43.90;;;;;;5054135;28;20037;-80
2022/06/24 08:14:06;;;;;;;6.20;2.50;;;31.90;42.60;;;;;;5051053;28;20104;-77
2022/06/24 08:16:32;;;;;;;4.10;2.80;;;31.60;43.10;;;;;;5051157;28;20039;-81
2022/06/24 08:18:57;;;;;;;4.60;2.50;;;31.60;42.60;;;;;;5059489;28;20055;-78
2022/06/24 08:21:23;;;;;;;5.05;2.50;;;31.60;43.50;;;;;;5060905;28;20043;-80
2022/06/24 08:23:49;;;;;;;5.22;2.97;;;32.00;42.10;;;;;;5050392;28;20025;-80
2022/06/24 08:26:16;;;;;;;4.95;3.00;;;32.30;42.80;;;;;;5049884;28;20021;-80
2022/06/24 08:28:42;;;;;;;8.88;2.60;;;32.00;41.60;;;;;;5043372;28;20029;-77
2022/06/24 08:31:08;;;;;;;5.38;2.80;;;31.50;42.10;;;;;;5051815;28;20443;-82
2022/06/24 08:33:34;;;;;;;4.53;2.60;;;31.30;43.40;;;;;;5050870;28;20094;-76
2022/06/24 08:36:01;;;;;;;4.47;2.65;;;31.60;41.80;;;;;;5051876;28;20037;-78
2022/06/24 08:38:26;;;;;;;5.20;2.72;;;31.50;42.50;;;;;;5050721;28;20021;-78
2022/06/24 08:40:54;;;;;;;5.78;2.50;;;31.30;42.70;;;;;;5050824;28;20074;-78
2022/06/24 08:43:23;;;;;;;4.68;2.45;;;31.40;42.30;;;;;;5050506;28;20124;-79
2022/06/24 08:45:49;;;;;;;5.75;2.42;;;32.00;41.80;;;;;;5051103;28;20028;-83
2022/06/24 08:48:16;;;;;;;6.38;2.72;;;32.30;42.50;;;;;;5052185;28;20083;-86
2022/06/24 08:50:42;;;;;;;3.38;2.40;;;32.20;42.70;;;;;;5050441;28;20824;-77
2022/06/24 08:53:10;;;;;;;3.40;2.40;;;32.30;42.30;;;;;;5050717;28;20072;-80
2022/06/24 08:55:40;;;;;;;7.60;2.63;;;32.10;42.80;;;;;;5050694;28;20399;-85
2022/06/24 08:58:10;;;;;;;6.00;2.88;;;32.00;43.30;;;;;;5051262;28;20024;-80
2022/06/24 09:00:36;;;;;;;5.03;2.47;;;31.80;42.60;;;;;;5049997;28;20031;-81
2022/06/24 09:03:03;;;;;;;3.72;2.30;;;32.10;43.70;;;;;;5051019;28;20032;-77
2022/06/24 09:05:29;;;;;;;4.03;2.80;;;32.70;43.20;;;;;;5049793;28;20112;-77
2022/06/24 09:08:11;;;;;;;5.38;2.42;;;33.00;42.20;;;;;;5051458;28;20060;-81
2022/06/24 09:10:39;;;;;;;5.40;2.60;;;33.30;44.20;;;;;;5049221;28;20063;-78
2022/06/24 09:13:05;;;;;;;6.75;2.53;;;33.40;42.60;;;;;;5036305;28;20048;-77
2022/06/24 09:15:32;;;;;;;12.00;2.97;;;33.10;41.50;;;;;;5045909;28;20037;-79
2022/06/24 09:17:59;;;;;;;4.60;2.60;;;33.10;40.80;;;;;;5047589;28;20056;-76
2022/06/24 09:20:30;;;;;;;3.80;2.30;;;33.50;42.20;;;;;;5046063;28;20039;-80
2022/06/24 09:23:10;;;;;;;3.55;2.55;;;33.80;41.70;;;;;;5044062;28;20518;-78
2022/06/24 09:25:52;;;;;;;;;;;32.60;41.60;;;;;;5049194;28;20103;-81
2022/06/24 09:28:29;;;;;;;4.25;2.33;;;32.50;43.30;;;;;;5049556;28;19912;-77
2022/06/24 09:31:03;;;;;;;3.92;2.60;;;32.50;43.10;;;;;;5063717;28;20501;-79
2022/06/24 09:33:36;;;;;;;6.55;2.28;;;33.00;41.50;;;;;;5066557;28;20450;-77
2022/06/24 09:36:04;;;;;;;4.70;2.47;;;33.50;43.40;;;;;;5059775;28;20068;-78
2022/06/24 09:38:29;;;;;;;4.63;2.30;;;33.40;42.50;;;;;;5057427;28;20476;-81
2022/06/24 09:41:04;;;;;;;3.78;2.45;;;33.60;40.60;;;;;;5070779;28;20044;-79
2022/06/24 09:43:31;;;;;;;5.82;2.50;;;33.20;41.30;;;;;;5063366;28;20044;-77
2022/06/24 09:45:57;;;;;;;7.53;2.45;;;32.90;42.00;;;;;;5049869;28;20067;-76
2022/06/24 09:48:37;;;;;;;4.68;2.80;;;33.60;42.60;;;;;;5055031;28;20028;-79
2022/06/24 09:51:07;;;;;;;4.30;2.67;;;33.60;40.50;;;;;;5054901;28;20519;-77
2022/06/24 09:53:35;;;;;;;17.50;11.25;;;32.90;40.50;;;;;;5070301;28;20020;-78
2022/06/24 09:56:03;;;;;;;37.00;20.52;;;33.30;43.30;;;;;;5058737;28;20035;-78
2022/06/24 09:58:29;;;;;;;19.73;10.25;;;33.90;41.10;;;;;;5068794;28;20032;-77
2022/06/24 10:00:55;;;;;;;8.35;3.08;;;34.10;41.90;;;;;;5067126;28;20400;-77
2022/06/24 10:03:21;;;;;;;25.10;14.23;;;33.90;41.10;;;;;;5049380;28;20045;-78
2022/06/24 10:05:50;;;;;;;7.15;3.90;;;33.80;41.50;;;;;;5051531;28;20059;-77
2022/06/24 10:08:18;;;;;;;4.75;2.97;;;34.00;40.50;;;;;;5069415;28;20029;-77
2022/06/24 10:10:55;;;;;;;4.80;3.03;;;33.30;40.20;;;;;;5049651;28;20029;-77
2022/06/24 10:13:20;;;;;;;6.32;3.22;;;33.80;41.20;;;;;;5047426;28;20025;-78
2022/06/24 10:15:47;;;;;;;4.80;2.85;;;34.20;40.80;;;;;;5056525;28;20044;-78
2022/06/24 10:18:15;;;;;;;5.25;2.63;;;34.30;41.50;;;;;;5049223;28;20029;-83
2022/06/24 10:20:47;;;;;;;5.40;3.05;;;34.50;41.40;;;;;;5051125;28;20475;-81
2022/06/24 10:23:38;;;;;;;5.63;3.25;;;34.80;40.90;;;;;;5050620;28;20041;-78
2022/06/24 10:26:29;;;;;;;4.85;2.60;;;35.00;40.00;;;;;;5049758;28;20032;-76
2022/06/24 10:29:04;;;;;;;8.13;2.50;;;34.00;39.80;;;;;;5053636;28;20033;-79
2022/06/24 10:31:50;;;;;;;4.78;2.30;;;33.00;40.60;;;;;;5051470;28;20067;-87
2022/06/24 10:34:20;;;;;;;4.35;2.60;;;33.30;41.70;;;;;;5047596;28;20632;-76
2022/06/24 10:36:47;;;;;;;4.13;2.63;;;33.80;41.40;;;;;;5042583;28;20027;-79
2022/06/24 10:39:18;;;;;;;5.30;2.25;;;34.10;40.30;;;;;;5061889;28;20127;-82
2022/06/24 10:41:44;;;;;;;7.20;2.50;;;34.60;41.50;;;;;;5068967;28;20452;-77
2022/06/24 10:44:23;;;;;;;6.25;2.50;;;34.80;40.80;;;;;;5061817;28;20029;-83
2022/06/24 10:47:09;;;;;;;4.65;2.50;;;34.90;40.50;;;;;;5053474;28;20025;-79
2022/06/24 10:49:50;;;;;;;4.50;2.33;;;35.10;40.00;;;;;;5051162;28;20025;-84
2022/06/24 10:52:37;;;;;;;6.68;2.30;;;34.90;41.30;;;;;;5051673;28;20087;-82
2022/06/24 10:55:18;;;;;;;4.50;2.72;;;35.30;41.70;;;;;;5042229;28;20853;-79
2022/06/24 10:57:44;;;;;;;;;;;35.50;40.20;;;;;;5053819;28;20466;-78
2022/06/24 11:00:19;;;;;;;6.63;2.85;;;35.70;41.60;;;;;;5050935;28;19921;-76
2022/06/24 11:02:47;;;;;;;3.42;2.50;;;36.10;39.20;;;;;;5060924;28;20488;-80
2022/06/24 11:05:24;;;;;;;4.47;2.22;;;36.20;39.50;;;;;;5047229;28;20471;-77
2022/06/24 11:07:51;;;;;;;3.40;2.40;;;35.70;40.10;;;;;;5065430;28;20055;-75
2022/06/24 11:10:19;;;;;;;5.07;2.40;;;35.90;40.10;;;;;;5055685;28;20025;-79
2022/06/24 11:12:52;;;;;;;4.90;2.58;;;35.30;39.50;;;;;;5073710;28;20102;-80
2022/06/24 11:15:19;;;;;;;4.45;2.50;;;34.90;39.80;;;;;;5073731;28;20028;-84
2022/06/24 11:17:44;;;;;;;7.95;2.60;;;34.90;40.40;;;;;;5067161;28;20057;-79
2022/06/24 11:20:12;;;;;;;4.85;2.45;;;35.00;40.30;;;;;;5060434;28;20733;-77
2022/06/24 11:22:44;;;;;;;10.48;2.78;;;34.70;40.80;;;;;;5049369;28;20036;-77
2022/06/24 11:25:15;;;;;;;8.30;2.60;;;34.20;40.40;;;;;;5041868;28;20025;-77
2022/06/24 11:27:41;;;;;;;5.55;2.65;;;34.50;41.70;;;;;;5054451;28;20159;-78
2022/06/24 11:30:09;;;;;;;3.92;2.40;;;34.80;40.30;;;;;;5034231;28;20026;-80
2022/06/24 11:32:57;;;;;;;4.20;2.50;;;34.40;40.00;;;;;;5033775;28;20075;-76
2022/06/24 11:35:24;;;;;;;5.53;2.47;;;34.10;40.10;;;;;;5033310;28;20025;-86
2022/06/24 11:37:50;;;;;;;3.70;2.50;;;34.50;39.70;;;;;;5033723;28;20037;-81
2022/06/24 11:40:35;;;;;;;6.82;2.80;;;34.70;40.00;;;;;;5032237;28;20037;-81
2022/06/24 11:43:06;;;;;;;4.35;2.58;;;34.90;39.50;;;;;;5032723;28;20049;-80
2022/06/24 11:45:34;;;;;;;;;;;34.30;39.60;;;;;;5032551;28;20123;-79
2022/06/24 11:48:00;;;;;;;6.82;2.75;;;33.90;39.80;;;;;;5033470;28;19915;-79
2022/06/24 11:50:30;;;;;;;8.50;2.90;;;34.00;40.30;;;;;;5032124;28;20059;-81
2022/06/24 11:52:57;;;;;;;;;;;33.60;39.40;;;;;;5034138;28;20021;-77
2022/06/24 11:55:28;;;;;;;4.10;2.60;;;33.30;40.60;;;;;;5031338;28;19905;-82
2022/06/24 11:57:56;;;;;;;5.57;2.55;;;33.70;41.00;;;;;;5034659;28;20033;-77
2022/06/24 12:00:24;;;;;;;5.15;2.55;;;33.90;41.10;;;;;;5034959;28;20535;-80
2022/06/24 12:02:52;;;;;;;4.82;2.70;;;34.00;40.10;;;;;;5035196;28;20057;-81
2022/06/24 12:05:19;;;;;;;9.27;2.50;;;34.00;38.90;;;;;;5034462;28;20017;-77
2022/06/24 12:07:46;;;;;;;5.38;2.40;;;33.70;39.80;;;;;;5035178;28;20033;-78
2022/06/24 12:10:12;;;;;;;4.13;2.45;;;34.40;40.50;;;;;;5035564;28;20034;-78
2022/06/24 12:13:05;;;;;;;6.47;2.50;;;34.90;40.30;;;;;;5035582;28;20055;-85
2022/06/24 12:15:37;;;;;;;4.15;2.60;;;35.50;40.80;;;;;;5035521;28;20368;-81
2022/06/24 12:18:14;;;;;;;3.92;2.40;;;35.30;39.70;;;;;;4690891;28;9999602;-85
2022/06/24 12:20:40;;;;;;;4.22;2.22;;;34.90;40.50;;;;;;5052110;28;20029;-79
2022/06/24 12:23:22;;;;;;;5.93;2.53;;;34.90;40.30;;;;;;5052553;28;20037;-75
2022/06/24 12:25:50;;;;;;;3.83;2.30;;;34.90;40.80;;;;;;5052267;28;20090;-78
2022/06/24 12:28:24;;;;;;;6.95;2.40;;;34.90;39.70;;;;;;5051339;28;20033;-77
2022/06/24 12:31:03;;;;;;;4.82;2.35;;;34.70;41.50;;;;;;5052128;28;20783;-79
2022/06/24 12:33:48;;;;;;;4.93;2.67;;;34.60;39.30;;;;;;5051267;28;20029;-79
2022/06/24 12:36:17;;;;;;;4.05;2.40;;;34.40;39.20;;;;;;5052326;28;20021;-81
2022/06/24 12:39:04;;;;;;;5.43;2.30;;;34.40;39.30;;;;;;5052455;28;20025;-77
2022/06/24 12:41:48;;;;;;;5.63;2.35;;;33.60;39.60;;;;;;5051286;28;20040;-75
2022/06/24 12:44:15;;;;;;;4.30;2.67;;;34.00;40.10;;;;;;5052647;28;20025;-77
2022/06/24 12:52:39;;;;;;;4.53;2.40;;;34.30;40.50;;;;;;5069272;28;20086;-76
2022/06/24 12:55:08;;;;;;;6.60;2.80;;;34.50;40.70;;;;;;5068972;28;20044;-78
2022/06/24 12:57:35;;;;;;;4.07;2.25;;;34.80;39.60;;;;;;5077181;28;20023;-78
2022/06/24 13:00:04;;;;;;;6.45;2.55;;;35.00;40.20;;;;;;4735443;28;9999695;-79
2022/06/24 13:02:30;;;;;;;6.00;2.40;;;35.40;39.40;;;;;;5069437;28;20283;-79
2022/06/24 13:04:55;;;;;;;5.05;2.58;;;35.90;39.70;;;;;;5052917;28;20147;-80
2022/06/24 13:07:21;;;;;;;6.05;2.50;;;35.90;40.80;;;;;;5070158;28;20040;-78